createdAt,value
2022-12-19T00:00:34.299Z,92.00
2022-12-19T00:03:01.919Z,90.20
2022-12-19T00:05:29.726Z,91.20
2022-12-19T00:07:57.390Z,92.60
2022-12-19T00:10:26.537Z,93.90
2022-12-19T00:13:11.827Z,94.70
2022-12-19T00:15:42.116Z,95.00
2022-12-19T00:18:09.419Z,93.90
2022-12-19T00:20:36.813Z,92.90
2022-12-19T00:23:04.158Z,93.60
2022-12-19T00:25:31.528Z,94.20
2022-12-19T00:27:59.647Z,94.10
2022-12-19T00:30:31.637Z,93.90
2022-12-19T00:33:00.061Z,92.30
2022-12-19T00:35:27.507Z,92.40
2022-12-19T00:37:54.814Z,93.00
2022-12-19T00:40:22.650Z,93.80
2022-12-19T00:42:53.811Z,94.10
2022-12-19T00:45:22.593Z,94.00
2022-12-19T00:47:50.517Z,94.10
2022-12-19T00:50:17.975Z,94.00
2022-12-19T00:52:45.278Z,93.10
2022-12-19T00:55:19.204Z,91.60
2022-12-19T00:57:47.379Z,92.00
2022-12-19T01:00:15.801Z,92.20
2022-12-19T01:02:43.800Z,92.80
2022-12-19T01:05:11.442Z,93.30
2022-12-19T01:07:41.597Z,93.60
2022-12-19T01:10:09.376Z,93.90
2022-12-19T01:12:48.875Z,94.20
2022-12-19T01:15:19.189Z,93.80
2022-12-19T01:17:47.813Z,94.30
2022-12-19T01:20:29.509Z,94.60
2022-12-19T01:23:00.112Z,94.60
2022-12-19T01:25:28.907Z,93.90
2022-12-19T01:27:57.391Z,93.50
2022-12-19T01:30:26.311Z,93.00
2022-12-19T01:32:57.437Z,92.70
2022-12-19T01:35:27.658Z,92.10
2022-12-19T01:37:58.058Z,90.60
2022-12-19T01:40:36.508Z,91.90
2022-12-19T01:43:04.253Z,93.00
2022-12-19T01:45:40.771Z,93.40
2022-12-19T01:48:32.531Z,94.30
2022-12-19T01:51:07.707Z,94.60
2022-12-19T01:53:48.786Z,94.50
2022-12-19T01:56:22.829Z,93.30
2022-12-19T01:58:57.394Z,92.50
2022-12-19T02:01:41.460Z,93.20
2022-12-19T02:04:24.380Z,93.70
2022-12-19T02:06:55.290Z,93.20
2022-12-19T02:09:24.932Z,91.40
2022-12-19T02:11:53.578Z,92.30
2022-12-19T02:14:22.050Z,93.50
2022-12-19T02:17:11.439Z,94.10
2022-12-19T02:20:08.105Z,94.60
2022-12-19T02:23:08.253Z,94.50
2022-12-19T02:25:41.895Z,93.90
2022-12-19T02:28:20.722Z,93.60
2022-12-19T02:31:05.679Z,93.40
2022-12-19T02:34:03.173Z,90.90
2022-12-19T02:36:45.299Z,91.60
2022-12-19T02:39:39.563Z,92.90
2022-12-19T02:42:09.837Z,93.50
2022-12-19T02:44:51.670Z,93.50
2022-12-19T02:47:21.854Z,93.00
2022-12-19T02:49:49.453Z,91.70
2022-12-19T02:52:20.255Z,91.60
2022-12-19T02:54:54.092Z,92.00
2022-12-19T02:57:45.328Z,92.10
2022-12-19T03:00:22.156Z,91.40
2022-12-19T03:03:07.827Z,90.80
2022-12-19T03:05:47.415Z,90.60
2022-12-19T03:08:22.974Z,90.90
2022-12-19T03:11:02.723Z,91.00
2022-12-19T03:13:33.831Z,90.60
2022-12-19T03:16:03.496Z,90.30
2022-12-19T03:18:33.729Z,90.00
2022-12-19T03:21:23.149Z,89.70
2022-12-19T03:23:54.542Z,89.20
2022-12-19T03:26:24.480Z,89.00
2022-12-19T03:29:39.959Z,89.00
2022-12-19T03:32:12.784Z,89.00
2022-12-19T03:34:52.602Z,89.00
2022-12-19T03:37:24.408Z,89.70
2022-12-19T03:39:58.571Z,89.40
2022-12-19T03:42:47.273Z,89.10
2022-12-19T03:45:21.048Z,89.30
2022-12-19T03:47:53.439Z,88.80
2022-12-19T03:50:24.341Z,88.80
2022-12-19T03:53:01.197Z,89.10
2022-12-19T03:55:47.543Z,89.80
2022-12-19T03:58:26.709Z,90.00
2022-12-19T04:00:54.798Z,89.00
2022-12-19T04:03:23.441Z,89.00
2022-12-19T04:05:51.969Z,90.70
2022-12-19T04:08:19.685Z,92.40
2022-12-19T04:10:54.600Z,92.40
2022-12-19T04:13:30.301Z,91.60
2022-12-19T04:16:32.574Z,90.60
2022-12-19T04:19:07.642Z,89.50
2022-12-19T04:21:46.578Z,89.80
2022-12-19T04:24:24.772Z,89.10
2022-12-19T04:26:55.218Z,89.40
2022-12-19T04:29:25.627Z,89.50
2022-12-19T04:31:54.290Z,90.30
2022-12-19T04:34:22.604Z,91.00
2022-12-19T04:36:53.951Z,90.00
2022-12-19T04:39:21.737Z,90.60
2022-12-19T04:41:49.955Z,89.60
2022-12-19T04:44:17.322Z,89.00
2022-12-19T04:46:44.663Z,89.50
2022-12-19T04:49:12.304Z,90.60
2022-12-19T04:51:39.514Z,92.30
2022-12-19T04:54:07.053Z,93.30
2022-12-19T04:56:34.401Z,94.20
2022-12-19T04:59:01.826Z,94.70
2022-12-19T05:01:29.707Z,94.60
2022-12-19T05:04:02.780Z,93.60
2022-12-19T05:06:32.182Z,92.80
2022-12-19T05:08:59.493Z,91.80
2022-12-19T05:11:26.930Z,91.70
2022-12-19T05:13:54.531Z,91.50
2022-12-19T05:16:22.191Z,90.40
2022-12-19T05:18:49.837Z,91.20
2022-12-19T05:21:17.225Z,92.10
2022-12-19T05:23:44.809Z,92.40
2022-12-19T05:26:12.483Z,92.00
2022-12-19T05:28:40.054Z,90.50
2022-12-19T05:31:20.151Z,89.60
2022-12-19T05:33:48.763Z,89.70
2022-12-19T05:36:18.136Z,90.90
2022-12-19T05:38:45.727Z,91.90
2022-12-19T05:41:15.772Z,92.70
2022-12-19T05:43:44.600Z,91.60
2022-12-19T05:46:12.756Z,91.90
2022-12-19T05:48:40.123Z,92.10
2022-12-19T05:51:07.941Z,91.60
2022-12-19T05:53:39.505Z,91.60
2022-12-19T05:56:16.259Z,91.00
2022-12-19T05:58:45.372Z,90.00
2022-12-19T06:01:19.039Z,89.90
2022-12-19T06:03:46.891Z,90.00
2022-12-19T06:06:19.594Z,90.10
2022-12-19T06:08:47.376Z,89.50
2022-12-19T06:11:15.007Z,89.80
2022-12-19T06:13:42.654Z,89.80
2022-12-19T06:16:39.600Z,89.50
2022-12-19T06:19:07.003Z,89.30
2022-12-19T06:21:34.282Z,89.00
2022-12-19T06:24:01.997Z,89.40
2022-12-19T06:26:39.992Z,89.50
2022-12-19T06:29:07.730Z,89.80
2022-12-19T06:31:35.070Z,89.10
2022-12-19T06:34:02.746Z,88.30
2022-12-19T06:36:31.430Z,88.40
2022-12-19T06:38:59.127Z,89.90
2022-12-19T06:41:46.168Z,91.90
2022-12-19T06:44:15.972Z,93.00
2022-12-19T06:46:44.204Z,92.80
2022-12-19T06:49:12.287Z,92.90
2022-12-19T06:51:40.062Z,92.90
2022-12-19T06:54:07.406Z,92.30
2022-12-19T06:56:38.762Z,91.70
2022-12-19T06:59:07.441Z,91.30
2022-12-19T07:01:45.016Z,91.60
2022-12-19T07:04:16.581Z,92.20
2022-12-19T07:06:48.938Z,92.50
2022-12-19T07:09:19.706Z,92.20
2022-12-19T07:11:47.213Z,92.20
2022-12-19T07:14:14.717Z,91.50
2022-12-19T07:16:42.839Z,91.40
2022-12-19T07:19:12.708Z,88.90
2022-12-19T07:21:41.060Z,88.90
2022-12-19T07:24:10.311Z,89.50
2022-12-19T07:26:38.175Z,90.00
2022-12-19T07:29:05.780Z,90.40
2022-12-19T07:31:35.621Z,91.00
2022-12-19T07:34:03.320Z,89.10
2022-12-19T07:36:30.784Z,88.90
2022-12-19T07:38:58.223Z,88.20
2022-12-19T07:41:25.874Z,87.20
2022-12-19T07:43:53.377Z,86.40
2022-12-19T07:46:22.086Z,85.90
2022-12-19T07:48:50.770Z,85.10
2022-12-19T07:51:18.111Z,84.20
2022-12-19T07:53:45.451Z,83.00
2022-12-19T07:56:12.702Z,82.20
2022-12-19T07:58:40.384Z,81.90
2022-12-19T08:01:08.049Z,81.30
2022-12-19T08:03:36.122Z,80.50
2022-12-19T08:06:06.674Z,80.30
2022-12-19T08:08:35.476Z,80.20
2022-12-19T08:11:14.737Z,80.20
2022-12-19T08:13:46.472Z,82.20
2022-12-19T08:16:14.980Z,83.40
2022-12-19T08:18:42.362Z,83.80
2022-12-19T08:21:10.644Z,84.60
2022-12-19T08:23:42.034Z,85.90
2022-12-19T08:26:13.515Z,85.80
2022-12-19T08:28:41.253Z,84.30
2022-12-19T08:31:13.967Z,83.90
2022-12-19T08:33:41.538Z,82.80
2022-12-19T08:36:11.896Z,82.60
2022-12-19T08:38:39.987Z,82.00
2022-12-19T08:41:07.907Z,80.60
2022-12-19T08:43:35.806Z,80.10
2022-12-19T08:46:03.281Z,80.00
2022-12-19T08:48:32.751Z,79.30
2022-12-19T08:51:02.679Z,79.20
2022-12-19T08:53:34.267Z,79.50
2022-12-19T08:56:08.493Z,78.50
2022-12-19T08:58:36.592Z,79.00
2022-12-19T09:01:07.960Z,78.30
2022-12-19T09:03:47.919Z,75.50
2022-12-19T09:06:24.820Z,70.40
2022-12-19T09:08:53.605Z,62.90
2022-12-19T09:11:28.551Z,58.00
2022-12-19T09:13:57.691Z,54.10
2022-12-19T09:16:27.276Z,51.10
2022-12-19T09:18:58.933Z,50.00
2022-12-19T09:21:31.990Z,48.60
2022-12-19T09:24:07.349Z,46.50
2022-12-19T09:26:37.507Z,45.00
2022-12-19T09:29:20.610Z,45.70
2022-12-19T09:31:55.843Z,44.60
2022-12-19T09:34:37.290Z,43.80
2022-12-19T09:37:16.721Z,42.10
2022-12-19T09:39:46.512Z,42.90
2022-12-19T09:42:41.245Z,42.50
2022-12-19T09:45:31.699Z,41.70
2022-12-19T09:48:02.779Z,41.20
2022-12-19T09:50:55.184Z,39.80
2022-12-19T09:54:07.312Z,39.00
2022-12-19T09:56:45.682Z,38.60
2022-12-19T09:59:41.562Z,39.30
2022-12-19T10:02:33.473Z,38.90
2022-12-19T10:05:15.091Z,39.50
2022-12-19T10:08:08.471Z,39.40
2022-12-19T10:12:37.401Z,39.50
2022-12-19T10:13:29.851Z,40.00
2022-12-19T10:16:19.176Z,40.80
2022-12-19T10:18:57.203Z,40.40
2022-12-19T10:25:08.132Z,40.00
2022-12-19T10:28:02.366Z,39.20
2022-12-19T10:30:40.620Z,39.70
2022-12-19T10:33:23.707Z,38.80
2022-12-19T10:36:02.222Z,36.20
2022-12-19T10:39:04.088Z,37.40
2022-12-19T10:41:33.205Z,37.70
2022-12-19T10:44:10.005Z,40.40
2022-12-19T10:46:46.789Z,40.20
2022-12-19T10:49:23.217Z,40.90
2022-12-19T10:52:06.179Z,38.40
2022-12-19T10:54:37.568Z,38.90
2022-12-19T10:57:27.810Z,38.70
2022-12-19T10:59:57.745Z,37.00
2022-12-19T11:02:42.562Z,37.60
2022-12-19T11:05:21.029Z,37.40
2022-12-19T11:08:24.978Z,38.40
2022-12-19T11:11:48.496Z,37.50
2022-12-19T11:17:48.676Z,37.20
2022-12-19T11:22:25.489Z,38.00
2022-12-19T11:29:25.720Z,39.10
2022-12-19T11:29:40.286Z,43.60
2022-12-19T11:30:21.343Z,41.40
2022-12-19T11:30:49.022Z,41.60
2022-12-19T11:32:32.059Z,45.60
2022-12-19T11:34:19.415Z,46.50
2022-12-19T11:36:54.514Z,47.70
2022-12-19T11:39:25.239Z,48.20
2022-12-19T11:42:47.070Z,48.70
2022-12-19T11:45:38.404Z,48.80
2022-12-19T11:48:19.471Z,50.30
2022-12-19T11:51:10.914Z,50.80
2022-12-19T11:53:53.613Z,53.10
2022-12-19T11:56:25.737Z,54.50
2022-12-19T11:59:18.689Z,54.20
2022-12-19T12:02:00.863Z,53.90
2022-12-19T12:04:55.224Z,52.70
2022-12-19T12:07:39.900Z,53.70
2022-12-19T12:13:52.040Z,55.00
2022-12-19T12:24:11.517Z,56.00
2022-12-19T12:31:00.949Z,55.50
2022-12-19T12:31:22.236Z,54.90
2022-12-19T12:31:50.631Z,57.90
2022-12-19T12:31:53.742Z,58.20
2022-12-19T12:31:57.037Z,56.90
2022-12-19T12:35:56.638Z,58.40
2022-12-19T12:39:04.202Z,54.90
2022-12-19T12:42:04.806Z,54.80
2022-12-19T12:44:45.646Z,55.30
2022-12-19T12:47:22.248Z,54.00
2022-12-19T12:50:05.882Z,55.10
2022-12-19T12:52:39.040Z,54.40
2022-12-19T12:55:42.051Z,54.50
2022-12-19T12:58:48.660Z,54.60
2022-12-19T13:01:35.972Z,55.30
2022-12-19T13:04:28.514Z,55.00
2022-12-19T13:07:34.873Z,56.10
2022-12-19T13:10:22.679Z,54.60
2022-12-19T13:13:15.819Z,55.30
2022-12-19T13:15:48.921Z,53.90
2022-12-19T13:18:35.009Z,54.60
2022-12-19T13:21:05.800Z,54.90
2022-12-19T13:23:43.376Z,55.20
2022-12-19T13:26:40.422Z,54.10
2022-12-19T13:29:29.364Z,55.10
2022-12-19T13:32:11.927Z,54.40
2022-12-19T13:34:39.510Z,53.60
2022-12-19T13:40:00.638Z,52.10
2022-12-19T13:40:20.076Z,49.50
2022-12-19T13:43:29.763Z,48.40
2022-12-19T13:46:07.408Z,48.60
2022-12-19T13:48:43.409Z,48.30
2022-12-19T13:51:12.771Z,48.70
2022-12-19T13:53:41.312Z,48.50
2022-12-19T13:56:15.592Z,48.00
2022-12-19T13:58:48.918Z,48.00
2022-12-19T14:01:36.055Z,49.80
2022-12-19T14:04:41.100Z,52.00
2022-12-19T14:07:36.223Z,52.00
2022-12-19T14:11:36.391Z,54.10
2022-12-19T14:13:41.345Z,55.70
2022-12-19T14:16:18.660Z,55.00
2022-12-19T14:18:50.677Z,56.40
2022-12-19T14:22:09.800Z,59.40
2022-12-19T14:24:25.235Z,61.50
2022-12-19T14:28:17.938Z,62.70
2022-12-19T14:30:29.164Z,61.40
2022-12-19T14:33:46.477Z,64.60
2022-12-19T14:36:09.593Z,65.20
2022-12-19T14:39:20.245Z,65.30
2022-12-19T14:42:02.870Z,67.90
2022-12-19T14:53:51.615Z,67.60
2022-12-19T14:54:13.499Z,71.60
2022-12-19T14:54:31.209Z,74.40
2022-12-19T14:54:47.598Z,74.80
2022-12-19T14:56:45.107Z,73.40
2022-12-19T14:59:05.901Z,73.70
2022-12-19T15:01:35.238Z,77.20
2022-12-19T15:04:47.436Z,79.00
2022-12-19T15:07:06.621Z,77.70
2022-12-19T15:11:00.220Z,76.80
2022-12-19T15:14:46.844Z,76.20
2022-12-19T15:16:24.852Z,76.90
2022-12-19T15:18:56.740Z,77.00
2022-12-19T15:21:24.518Z,78.80
2022-12-19T15:23:51.928Z,80.40
2022-12-19T15:26:30.305Z,80.70
2022-12-19T15:29:00.661Z,80.80
2022-12-19T15:31:38.868Z,80.70
2022-12-19T15:37:03.449Z,77.60
2022-12-19T15:39:31.183Z,78.40
2022-12-19T15:42:00.818Z,79.10
2022-12-19T15:44:40.868Z,80.20
2022-12-19T15:47:33.004Z,79.10
2022-12-19T15:50:04.444Z,82.20
2022-12-19T15:52:32.517Z,82.90
2022-12-19T15:54:59.819Z,82.10
2022-12-19T15:57:34.515Z,81.80
2022-12-19T16:00:07.741Z,80.60
2022-12-19T16:03:13.416Z,80.50
2022-12-19T16:05:24.613Z,82.30
2022-12-19T16:07:52.605Z,83.70
2022-12-19T16:10:19.909Z,83.40
2022-12-19T16:12:53.747Z,83.80
2022-12-19T16:15:21.039Z,83.60
2022-12-19T16:17:48.502Z,80.50
2022-12-19T16:20:24.611Z,82.90
2022-12-19T16:23:00.428Z,84.50
2022-12-19T16:25:35.218Z,84.30
2022-12-19T16:28:04.708Z,83.80
2022-12-19T16:30:37.177Z,83.50
2022-12-19T16:33:23.772Z,83.10
2022-12-19T16:36:07.684Z,82.70
2022-12-19T16:38:36.364Z,81.70
2022-12-19T16:41:04.265Z,82.20
2022-12-19T16:43:36.693Z,82.90
2022-12-19T16:46:07.093Z,85.50
2022-12-19T16:48:38.180Z,87.20
2022-12-19T16:51:10.892Z,86.10
2022-12-19T16:53:38.236Z,87.50
2022-12-19T16:56:06.644Z,87.70
2022-12-19T16:58:41.318Z,88.30
2022-12-19T17:01:11.069Z,89.10
2022-12-19T17:03:41.941Z,89.50
2022-12-19T17:06:15.290Z,89.10
2022-12-19T17:08:43.254Z,86.20
2022-12-19T17:11:24.164Z,86.00
2022-12-19T17:13:55.115Z,87.40
2022-12-19T17:16:22.703Z,87.60
2022-12-19T17:18:50.911Z,86.90
2022-12-19T17:21:21.691Z,85.50
2022-12-19T17:23:49.080Z,85.90
2022-12-19T17:26:18.104Z,86.70
2022-12-19T17:28:48.439Z,88.10
2022-12-19T17:31:28.749Z,88.40
2022-12-19T17:33:58.387Z,87.90
2022-12-19T17:36:32.784Z,87.30
2022-12-19T17:39:25.597Z,86.50
2022-12-19T17:41:57.273Z,85.30
2022-12-19T17:44:25.047Z,83.60
2022-12-19T17:46:52.956Z,85.50
2022-12-19T17:49:32.609Z,85.40
2022-12-19T17:52:01.107Z,88.30
2022-12-19T17:54:31.027Z,89.70
2022-12-19T17:56:58.503Z,89.40
2022-12-19T17:59:25.781Z,89.80
2022-12-19T18:01:53.483Z,91.10
2022-12-19T18:04:21.834Z,91.20
2022-12-19T18:06:49.521Z,90.30
2022-12-19T18:09:23.780Z,89.90
2022-12-19T18:11:53.071Z,88.30
2022-12-19T18:14:21.520Z,88.00
2022-12-19T18:16:50.995Z,88.80
2022-12-19T18:19:20.511Z,89.10
2022-12-19T18:21:48.157Z,89.10
2022-12-19T18:24:16.780Z,90.30
2022-12-19T18:26:45.405Z,90.80
2022-12-19T18:29:13.894Z,90.80
2022-12-19T18:31:48.109Z,90.70
2022-12-19T18:34:26.028Z,88.80
2022-12-19T18:36:54.251Z,87.80
2022-12-19T18:39:25.768Z,88.00
2022-12-19T18:42:14.486Z,89.10
2022-12-19T18:44:52.114Z,90.00
2022-12-19T18:47:25.808Z,90.60
2022-12-19T18:49:53.204Z,89.90
2022-12-19T18:52:20.445Z,89.00
2022-12-19T18:54:47.806Z,88.20
2022-12-19T18:57:15.053Z,87.00
2022-12-19T18:59:42.437Z,84.70
2022-12-19T19:02:26.638Z,85.90
2022-12-19T19:04:56.021Z,88.10
2022-12-19T19:07:23.515Z,89.60
2022-12-19T19:09:50.993Z,90.10
2022-12-19T19:12:38.629Z,89.70
2022-12-19T19:15:06.825Z,88.70
2022-12-19T19:17:34.565Z,86.60
2022-12-19T19:20:05.002Z,87.70
2022-12-19T19:22:32.878Z,87.80
2022-12-19T19:25:00.830Z,89.80
2022-12-19T19:27:28.679Z,91.30
2022-12-19T19:29:55.993Z,91.90
2022-12-19T19:32:23.587Z,92.20
2022-12-19T19:34:50.975Z,92.20
2022-12-19T19:37:19.174Z,91.40
2022-12-19T19:39:46.532Z,89.70
2022-12-19T19:42:13.958Z,86.80
2022-12-19T19:44:41.336Z,88.80
2022-12-19T19:47:08.994Z,90.50
2022-12-19T19:49:36.365Z,90.90
2022-12-19T19:52:04.641Z,91.00
2022-12-19T19:54:34.925Z,90.80
2022-12-19T19:57:03.181Z,90.00
2022-12-19T19:59:31.935Z,88.30
2022-12-19T20:01:59.418Z,87.10
2022-12-19T20:04:27.055Z,89.20
2022-12-19T20:06:54.591Z,89.60
2022-12-19T20:09:21.925Z,90.80
2022-12-19T20:11:49.315Z,91.30
2022-12-19T20:14:16.707Z,91.60
2022-12-19T20:17:34.787Z,91.80
2022-12-19T20:20:03.120Z,90.80
2022-12-19T20:22:31.291Z,88.20
2022-12-19T20:24:59.261Z,89.40
2022-12-19T20:27:31.414Z,90.40
2022-12-19T20:29:59.599Z,89.90
2022-12-19T20:32:31.813Z,89.80
2022-12-19T20:35:02.586Z,90.70
2022-12-19T20:37:31.724Z,91.50
2022-12-19T20:40:01.354Z,92.00
2022-12-19T20:42:29.671Z,91.10
2022-12-19T20:44:58.853Z,89.80
2022-12-19T20:47:27.064Z,90.80
2022-12-19T20:49:54.503Z,90.90
2022-12-19T20:52:21.832Z,90.70
2022-12-19T20:54:49.220Z,90.60
2022-12-19T20:57:16.988Z,89.80
2022-12-19T20:59:46.439Z,89.30
2022-12-19T21:02:14.311Z,89.10
2022-12-19T21:04:41.896Z,88.40
2022-12-19T21:07:09.692Z,87.40
2022-12-19T21:09:37.394Z,87.00
2022-12-19T21:12:05.442Z,89.40
2022-12-19T21:14:33.443Z,90.80
2022-12-19T21:17:00.844Z,91.00
2022-12-19T21:19:28.070Z,91.20
2022-12-19T21:21:55.777Z,89.00
2022-12-19T21:24:23.299Z,88.70
2022-12-19T21:26:57.715Z,89.40
2022-12-19T21:29:25.957Z,91.30
2022-12-19T21:31:53.265Z,91.00
2022-12-19T21:34:20.680Z,90.50
2022-12-19T21:36:47.939Z,89.70
2022-12-19T21:39:15.219Z,88.70
2022-12-19T21:41:42.464Z,88.90
2022-12-19T21:44:12.983Z,89.00
2022-12-19T21:46:40.387Z,88.60
2022-12-19T21:49:08.922Z,89.10
2022-12-19T21:51:36.558Z,88.60
2022-12-19T21:54:05.250Z,88.20
2022-12-19T21:56:35.146Z,89.30
2022-12-19T21:59:05.892Z,90.30
2022-12-19T22:01:33.758Z,90.90
2022-12-19T22:04:04.914Z,90.50
2022-12-19T22:06:34.823Z,89.60
2022-12-19T22:09:02.337Z,89.10
2022-12-19T22:11:30.260Z,88.80
2022-12-19T22:14:00.754Z,88.30
2022-12-19T22:16:29.541Z,86.80
2022-12-19T22:18:57.334Z,88.40
2022-12-19T22:21:25.539Z,89.20
2022-12-19T22:23:56.207Z,88.70
2022-12-19T22:26:24.479Z,88.60
2022-12-19T22:28:53.933Z,88.90
2022-12-19T22:31:32.298Z,88.10
2022-12-19T22:34:05.658Z,87.40
2022-12-19T22:36:35.661Z,88.20
2022-12-19T22:39:05.907Z,89.50
2022-12-19T22:41:35.008Z,90.10
2022-12-19T22:44:03.707Z,88.10
2022-12-19T22:46:33.782Z,90.00
2022-12-19T22:49:04.068Z,90.80
2022-12-19T22:51:33.954Z,91.90
2022-12-19T22:54:02.447Z,93.00
2022-12-19T22:56:31.794Z,93.30
2022-12-19T22:59:04.256Z,92.90
2022-12-19T23:01:37.327Z,90.20
2022-12-19T23:04:07.724Z,91.40
2022-12-19T23:06:37.103Z,92.20
2022-12-19T23:09:09.641Z,92.20
2022-12-19T23:11:39.865Z,90.50
2022-12-19T23:14:08.969Z,90.90
2022-12-19T23:16:36.668Z,91.00
2022-12-19T23:19:05.316Z,90.40
2022-12-19T23:21:33.778Z,89.50
2022-12-19T23:24:01.282Z,88.70
2022-12-19T23:26:32.310Z,88.40
2022-12-19T23:29:04.677Z,88.40
2022-12-19T23:31:33.829Z,87.40
2022-12-19T23:34:02.256Z,86.50
2022-12-19T23:37:09.119Z,87.30
2022-12-19T23:39:17.246Z,87.70
2022-12-19T23:41:44.865Z,88.00
2022-12-19T23:44:12.545Z,87.60
2022-12-19T23:46:40.372Z,87.40
2022-12-19T23:52:26.759Z,88.60
2022-12-19T23:54:54.166Z,90.20
2022-12-19T23:57:21.457Z,90.20
2022-12-19T23:59:48.827Z,89.60
